sensor_id;sensor_type;location;lat;lon;timestamp;pressure;altitude;pressure_sealevel;temperature;humidity
42705;BME280;28342;42.594;23.414;2022-12-29T00:02:04;95401.19;;;3.63;87.13
42705;BME280;28342;42.594;23.414;2022-12-29T00:04:30;95415.53;;;3.77;86.92
42705;BME280;28342;42.594;23.414;2022-12-29T00:06:55;95381.66;;;3.54;86.44
42705;BME280;28342;42.594;23.414;2022-12-29T00:09:21;95383.78;;;3.57;86.16
42705;BME280;28342;42.594;23.414;2022-12-29T00:11:47;95411.81;;;3.73;86.46
42705;BME280;28342;42.594;23.414;2022-12-29T00:14:13;95408.97;;;3.75;86.28
42705;BME280;28342;42.594;23.414;2022-12-29T00:16:57;95417.31;;;3.72;86.61
42705;BME280;28342;42.594;23.414;2022-12-29T00:19:23;95421.06;;;3.59;86.53
42705;BME280;28342;42.594;23.414;2022-12-29T00:22:13;95396.03;;;3.51;86.34
42705;BME280;28342;42.594;23.414;2022-12-29T00:24:58;95405.63;;;3.63;86.01
42705;BME280;28342;42.594;23.414;2022-12-29T00:27:27;95416.13;;;3.63;86.76
42705;BME280;28342;42.594;23.414;2022-12-29T00:30:14;95404.06;;;3.45;86.82
42705;BME280;28342;42.594;23.414;2022-12-29T00:32:58;95425.22;;;3.55;86.98
42705;BME280;28342;42.594;23.414;2022-12-29T00:35:44;95419.16;;;3.54;86.80
42705;BME280;28342;42.594;23.414;2022-12-29T00:38:11;95398.81;;;3.45;87.46
42705;BME280;28342;42.594;23.414;2022-12-29T00:40:56;95412.56;;;3.52;87.81
42705;BME280;28342;42.594;23.414;2022-12-29T00:43:40;95399.91;;;3.49;87.39
42705;BME280;28342;42.594;23.414;2022-12-29T00:46:24;95426.69;;;3.51;87.29
42705;BME280;28342;42.594;23.414;2022-12-29T00:48:49;95402.53;;;3.49;86.67
42705;BME280;28342;42.594;23.414;2022-12-29T00:51:34;95392.78;;;3.44;86.73
42705;BME280;28342;42.594;23.414;2022-12-29T00:54:00;95417.34;;;3.55;86.85
42705;BME280;28342;42.594;23.414;2022-12-29T00:56:25;95413.13;;;3.54;86.80
42705;BME280;28342;42.594;23.414;2022-12-29T00:58:50;95401.19;;;3.46;86.38
42705;BME280;28342;42.594;23.414;2022-12-29T01:01:16;95412.00;;;3.50;86.51
42705;BME280;28342;42.594;23.414;2022-12-29T01:03:41;95408.53;;;3.44;86.98
42705;BME280;28342;42.594;23.414;2022-12-29T01:06:09;95407.25;;;3.47;87.55
42705;BME280;28342;42.594;23.414;2022-12-29T01:08:35;95415.50;;;3.55;87.62
42705;BME280;28342;42.594;23.414;2022-12-29T01:11:02;95406.41;;;3.63;87.60
42705;BME280;28342;42.594;23.414;2022-12-29T01:13:28;95405.25;;;3.54;88.11
42705;BME280;28342;42.594;23.414;2022-12-29T01:15:53;95417.41;;;3.60;88.11
42705;BME280;28342;42.594;23.414;2022-12-29T01:18:19;95405.38;;;3.64;87.29
42705;BME280;28342;42.594;23.414;2022-12-29T01:20:45;95402.22;;;3.62;86.75
42705;BME280;28342;42.594;23.414;2022-12-29T01:23:11;95386.25;;;3.47;87.04
42705;BME280;28342;42.594;23.414;2022-12-29T01:25:37;95382.59;;;3.48;86.62
42705;BME280;28342;42.594;23.414;2022-12-29T01:28:02;95395.81;;;3.53;86.42
42705;BME280;28342;42.594;23.414;2022-12-29T01:30:28;95384.06;;;3.39;86.40
42705;BME280;28342;42.594;23.414;2022-12-29T01:32:53;95406.69;;;3.45;86.66
42705;BME280;28342;42.594;23.414;2022-12-29T01:35:18;95388.97;;;3.18;88.31
42705;BME280;28342;42.594;23.414;2022-12-29T01:37:44;95388.91;;;3.30;88.06
42705;BME280;28342;42.594;23.414;2022-12-29T01:40:10;95403.91;;;3.35;88.00
42705;BME280;28342;42.594;23.414;2022-12-29T01:42:35;95390.88;;;3.40;87.65
42705;BME280;28342;42.594;23.414;2022-12-29T01:45:12;95372.31;;;3.24;87.79
42705;BME280;28342;42.594;23.414;2022-12-29T01:47:47;95387.72;;;3.38;87.25
42705;BME280;28342;42.594;23.414;2022-12-29T01:53:03;95399.78;;;3.39;86.72
42705;BME280;28342;42.594;23.414;2022-12-29T01:55:34;95363.88;;;3.22;86.28
42705;BME280;28342;42.594;23.414;2022-12-29T01:58:04;95378.66;;;3.28;86.16
42705;BME280;28342;42.594;23.414;2022-12-29T02:00:30;95384.63;;;3.24;86.10
42705;BME280;28342;42.594;23.414;2022-12-29T02:02:56;95392.94;;;3.21;86.62
42705;BME280;28342;42.594;23.414;2022-12-29T02:05:32;95381.66;;;3.20;86.02
42705;BME280;28342;42.594;23.414;2022-12-29T02:08:00;95374.28;;;3.17;85.75
42705;BME280;28342;42.594;23.414;2022-12-29T02:10:28;95379.03;;;3.20;85.48
42705;BME280;28342;42.594;23.414;2022-12-29T02:12:56;95383.59;;;3.08;86.09
42705;BME280;28342;42.594;23.414;2022-12-29T02:15:37;95375.06;;;3.01;86.11
42705;BME280;28342;42.594;23.414;2022-12-29T02:18:25;95366.59;;;2.94;86.46
42705;BME280;28342;42.594;23.414;2022-12-29T02:40:29;95373.66;;;3.10;89.38
42705;BME280;28342;42.594;23.414;2022-12-29T02:48:19;95370.06;;;3.16;90.61
42705;BME280;28342;42.594;23.414;2022-12-29T02:51:07;95373.72;;;3.15;90.10
42705;BME280;28342;42.594;23.414;2022-12-29T02:53:36;95361.72;;;3.03;89.69
42705;BME280;28342;42.594;23.414;2022-12-29T02:56:21;95346.19;;;2.96;89.18
42705;BME280;28342;42.594;23.414;2022-12-29T02:58:47;95342.28;;;2.82;89.67
42705;BME280;28342;42.594;23.414;2022-12-29T03:10:08;95354.66;;;3.03;89.90
42705;BME280;28342;42.594;23.414;2022-12-29T03:13:23;95357.38;;;3.08;90.12
42705;BME280;28342;42.594;23.414;2022-12-29T03:16:27;95359.91;;;3.03;90.84
42705;BME280;28342;42.594;23.414;2022-12-29T03:19:10;95375.06;;;3.01;91.32
42705;BME280;28342;42.594;23.414;2022-12-29T03:21:43;95346.72;;;2.98;90.60
42705;BME280;28342;42.594;23.414;2022-12-29T03:24:31;95334.97;;;2.84;90.89
42705;BME280;28342;42.594;23.414;2022-12-29T03:26:59;95355.63;;;2.97;90.75
42705;BME280;28342;42.594;23.414;2022-12-29T03:29:29;95353.06;;;3.02;90.16
42705;BME280;28342;42.594;23.414;2022-12-29T03:31:57;95357.84;;;3.05;90.34
42705;BME280;28342;42.594;23.414;2022-12-29T03:34:23;95348.31;;;2.99;90.23
42705;BME280;28342;42.594;23.414;2022-12-29T03:36:58;95353.31;;;3.00;90.15
42705;BME280;28342;42.594;23.414;2022-12-29T03:39:26;95356.59;;;3.08;89.18
42705;BME280;28342;42.594;23.414;2022-12-29T03:42:01;95332.03;;;2.97;89.36
42705;BME280;28342;42.594;23.414;2022-12-29T03:44:33;95345.13;;;2.97;89.51
42705;BME280;28342;42.594;23.414;2022-12-29T03:46:58;95354.34;;;2.83;89.53
42705;BME280;28342;42.594;23.414;2022-12-29T03:49:24;95365.84;;;2.82;89.48
42705;BME280;28342;42.594;23.414;2022-12-29T03:51:49;95362.75;;;2.85;89.04
42705;BME280;28342;42.594;23.414;2022-12-29T03:54:15;95366.41;;;2.84;89.37
42705;BME280;28342;42.594;23.414;2022-12-29T03:56:40;95366.09;;;2.80;88.86
42705;BME280;28342;42.594;23.414;2022-12-29T03:59:06;95330.44;;;2.62;88.58
42705;BME280;28342;42.594;23.414;2022-12-29T04:01:31;95349.88;;;2.66;88.25
42705;BME280;28342;42.594;23.414;2022-12-29T04:03:56;95357.34;;;2.75;87.83
42705;BME280;28342;42.594;23.414;2022-12-29T04:06:22;95366.78;;;2.76;88.10
42705;BME280;28342;42.594;23.414;2022-12-29T04:08:48;95375.22;;;2.78;87.77
42705;BME280;28342;42.594;23.414;2022-12-29T04:11:14;95360.72;;;2.58;87.78
42705;BME280;28342;42.594;23.414;2022-12-29T04:13:39;95359.25;;;2.62;87.47
42705;BME280;28342;42.594;23.414;2022-12-29T04:16:06;95328.41;;;2.36;87.44
42705;BME280;28342;42.594;23.414;2022-12-29T04:18:32;95355.41;;;2.53;87.77
42705;BME280;28342;42.594;23.414;2022-12-29T04:20:57;95376.91;;;2.55;87.99
42705;BME280;28342;42.594;23.414;2022-12-29T04:23:29;95351.25;;;2.40;87.74
42705;BME280;28342;42.594;23.414;2022-12-29T04:25:55;95349.75;;;2.45;87.60
42705;BME280;28342;42.594;23.414;2022-12-29T04:28:20;95358.88;;;2.42;87.49
42705;BME280;28342;42.594;23.414;2022-12-29T04:30:46;95387.50;;;2.60;87.29
42705;BME280;28342;42.594;23.414;2022-12-29T04:33:12;95384.41;;;2.35;88.09
42705;BME280;28342;42.594;23.414;2022-12-29T04:35:37;95378.94;;;2.36;88.40
42705;BME280;28342;42.594;23.414;2022-12-29T04:38:03;95376.66;;;2.40;88.11
42705;BME280;28342;42.594;23.414;2022-12-29T04:40:28;95393.94;;;2.41;88.16
42705;BME280;28342;42.594;23.414;2022-12-29T04:42:54;95383.09;;;2.21;89.21
42705;BME280;28342;42.594;23.414;2022-12-29T04:45:20;95394.34;;;2.33;88.86
42705;BME280;28342;42.594;23.414;2022-12-29T04:47:45;95384.59;;;2.17;89.62
42705;BME280;28342;42.594;23.414;2022-12-29T04:50:11;95373.41;;;2.21;89.83
42705;BME280;28342;42.594;23.414;2022-12-29T04:52:36;95390.44;;;2.35;89.39
42705;BME280;28342;42.594;23.414;2022-12-29T04:55:02;95399.66;;;2.38;90.42
42705;BME280;28342;42.594;23.414;2022-12-29T04:57:28;95398.53;;;2.34;90.92
42705;BME280;28342;42.594;23.414;2022-12-29T04:59:53;95398.88;;;2.26;91.04
42705;BME280;28342;42.594;23.414;2022-12-29T05:02:18;95408.06;;;2.40;91.44
42705;BME280;28342;42.594;23.414;2022-12-29T05:04:44;95406.00;;;2.42;92.22
42705;BME280;28342;42.594;23.414;2022-12-29T05:07:10;95414.16;;;2.57;92.08
42705;BME280;28342;42.594;23.414;2022-12-29T05:09:35;95399.66;;;2.38;92.54
42705;BME280;28342;42.594;23.414;2022-12-29T05:12:00;95391.88;;;2.43;92.94
42705;BME280;28342;42.594;23.414;2022-12-29T05:14:26;95420.84;;;2.65;93.19
42705;BME280;28342;42.594;23.414;2022-12-29T05:16:51;95402.50;;;2.65;92.89
42705;BME280;28342;42.594;23.414;2022-12-29T05:19:17;95418.63;;;2.74;92.80
42705;BME280;28342;42.594;23.414;2022-12-29T05:21:43;95380.28;;;2.39;93.23
42705;BME280;28342;42.594;23.414;2022-12-29T05:24:08;95411.47;;;2.69;92.44
42705;BME280;28342;42.594;23.414;2022-12-29T05:26:34;95402.78;;;2.80;91.66
42705;BME280;28342;42.594;23.414;2022-12-29T05:28:59;95408.88;;;2.86;91.68
42705;BME280;28342;42.594;23.414;2022-12-29T05:31:25;95394.00;;;2.75;92.10
42705;BME280;28342;42.594;23.414;2022-12-29T05:33:51;95394.50;;;2.72;93.09
42705;BME280;28342;42.594;23.414;2022-12-29T05:36:17;95408.88;;;2.86;93.51
42705;BME280;28342;42.594;23.414;2022-12-29T05:38:42;95399.44;;;2.85;93.99
42705;BME280;28342;42.594;23.414;2022-12-29T05:41:07;95407.16;;;2.91;93.99
42705;BME280;28342;42.594;23.414;2022-12-29T05:43:33;95414.38;;;3.01;93.62
42705;BME280;28342;42.594;23.414;2022-12-29T05:45:58;95418.03;;;3.00;93.29
42705;BME280;28342;42.594;23.414;2022-12-29T05:48:24;95393.41;;;3.01;92.90
42705;BME280;28342;42.594;23.414;2022-12-29T05:50:50;95402.88;;;3.02;92.67
42705;BME280;28342;42.594;23.414;2022-12-29T05:53:16;95414.81;;;3.10;92.90
42705;BME280;28342;42.594;23.414;2022-12-29T05:55:43;95424.88;;;3.01;93.98
42705;BME280;28342;42.594;23.414;2022-12-29T05:58:08;95398.97;;;2.88;94.03
42705;BME280;28342;42.594;23.414;2022-12-29T06:00:34;95423.75;;;2.97;94.03
42705;BME280;28342;42.594;23.414;2022-12-29T06:03:00;95434.25;;;2.97;94.35
42705;BME280;28342;42.594;23.414;2022-12-29T06:05:25;95426.94;;;2.99;94.36
42705;BME280;28342;42.594;23.414;2022-12-29T06:07:50;95426.09;;;3.10;93.11
42705;BME280;28342;42.594;23.414;2022-12-29T06:10:16;95434.34;;;3.19;93.06
42705;BME280;28342;42.594;23.414;2022-12-29T06:12:42;95414.09;;;3.14;91.84
42705;BME280;28342;42.594;23.414;2022-12-29T06:15:07;95435.22;;;3.24;91.84
42705;BME280;28342;42.594;23.414;2022-12-29T06:17:33;95445.72;;;3.24;91.39
42705;BME280;28342;42.594;23.414;2022-12-29T06:19:58;95441.59;;;3.28;91.12
42705;BME280;28342;42.594;23.414;2022-12-29T06:22:24;95438.88;;;3.23;91.03
42705;BME280;28342;42.594;23.414;2022-12-29T06:24:49;95433.66;;;3.23;90.80
42705;BME280;28342;42.594;23.414;2022-12-29T06:27:15;95451.75;;;3.25;91.93
42705;BME280;28342;42.594;23.414;2022-12-29T06:29:40;95440.94;;;3.21;92.25
42705;BME280;28342;42.594;23.414;2022-12-29T06:32:06;95456.34;;;3.35;91.94
42705;BME280;28342;42.594;23.414;2022-12-29T06:34:32;95459.53;;;3.37;91.81
42705;BME280;28342;42.594;23.414;2022-12-29T06:36:57;95452.56;;;3.25;92.26
42705;BME280;28342;42.594;23.414;2022-12-29T06:39:23;95439.03;;;3.34;90.22
42705;BME280;28342;42.594;23.414;2022-12-29T06:41:51;95443.47;;;3.33;90.76
42705;BME280;28342;42.594;23.414;2022-12-29T06:44:17;95448.47;;;3.35;91.10
42705;BME280;28342;42.594;23.414;2022-12-29T06:46:42;95440.00;;;3.27;92.46
42705;BME280;28342;42.594;23.414;2022-12-29T06:49:08;95448.09;;;3.43;92.22
42705;BME280;28342;42.594;23.414;2022-12-29T06:51:33;95445.25;;;3.27;93.32
42705;BME280;28342;42.594;23.414;2022-12-29T06:53:58;95456.53;;;3.45;93.07
42705;BME280;28342;42.594;23.414;2022-12-29T06:56:24;95451.09;;;3.51;92.51
42705;BME280;28342;42.594;23.414;2022-12-29T06:58:49;95465.91;;;3.41;93.75
42705;BME280;28342;42.594;23.414;2022-12-29T07:01:15;95453.34;;;3.26;95.06
42705;BME280;28342;42.594;23.414;2022-12-29T07:03:43;95447.31;;;3.25;95.10
42705;BME280;28342;42.594;23.414;2022-12-29T07:06:08;95463.84;;;3.43;94.68
42705;BME280;28342;42.594;23.414;2022-12-29T07:08:34;95457.00;;;3.42;94.95
42705;BME280;28342;42.594;23.414;2022-12-29T07:10:59;95432.06;;;3.22;94.94
42705;BME280;28342;42.594;23.414;2022-12-29T07:13:25;95457.16;;;3.52;94.65
42705;BME280;28342;42.594;23.414;2022-12-29T07:15:53;95442.53;;;3.56;94.05
42705;BME280;28342;42.594;23.414;2022-12-29T07:18:19;95420.38;;;3.30;93.90
42705;BME280;28342;42.594;23.414;2022-12-29T07:20:44;95419.50;;;3.41;93.78
42705;BME280;28342;42.594;23.414;2022-12-29T07:23:10;95414.41;;;3.35;94.06
42705;BME280;28342;42.594;23.414;2022-12-29T07:25:39;95453.34;;;3.59;94.40
42705;BME280;28342;42.594;23.414;2022-12-29T07:28:06;95447.47;;;3.52;94.78
42705;BME280;28342;42.594;23.414;2022-12-29T07:30:32;95452.94;;;3.51;94.75
42705;BME280;28342;42.594;23.414;2022-12-29T07:33:00;95456.28;;;3.63;94.60
42705;BME280;28342;42.594;23.414;2022-12-29T07:35:26;95450.47;;;3.61;94.13
42705;BME280;28342;42.594;23.414;2022-12-29T07:37:51;95447.03;;;3.77;93.47
42705;BME280;28342;42.594;23.414;2022-12-29T07:40:16;95463.81;;;3.76;93.25
42705;BME280;28342;42.594;23.414;2022-12-29T07:42:42;95456.97;;;3.75;92.65
42705;BME280;28342;42.594;23.414;2022-12-29T07:45:08;95456.09;;;3.86;92.47
42705;BME280;28342;42.594;23.414;2022-12-29T07:47:34;95461.41;;;3.92;92.87
42705;BME280;28342;42.594;23.414;2022-12-29T07:49:59;95431.03;;;3.79;92.60
42705;BME280;28342;42.594;23.414;2022-12-29T07:52:25;95454.72;;;4.01;92.25
42705;BME280;28342;42.594;23.414;2022-12-29T07:54:50;95443.59;;;3.94;92.09
42705;BME280;28342;42.594;23.414;2022-12-29T07:57:16;95460.44;;;4.14;91.64
42705;BME280;28342;42.594;23.414;2022-12-29T07:59:41;95433.56;;;3.90;90.93
42705;BME280;28342;42.594;23.414;2022-12-29T08:02:09;95454.69;;;4.17;91.51
42705;BME280;28342;42.594;23.414;2022-12-29T08:04:35;95464.63;;;4.37;89.67
42705;BME280;28342;42.594;23.414;2022-12-29T08:07:00;95438.88;;;4.34;89.59
42705;BME280;28342;42.594;23.414;2022-12-29T08:09:26;95445.03;;;4.45;88.42
42705;BME280;28342;42.594;23.414;2022-12-29T08:11:51;95466.41;;;4.54;88.92
42705;BME280;28342;42.594;23.414;2022-12-29T08:14:17;95476.56;;;4.67;88.63
42705;BME280;28342;42.594;23.414;2022-12-29T08:16:43;95453.41;;;4.64;87.56
42705;BME280;28342;42.594;23.414;2022-12-29T08:19:10;95474.34;;;4.80;87.70
42705;BME280;28342;42.594;23.414;2022-12-29T08:21:36;95454.09;;;4.81;86.82
42705;BME280;28342;42.594;23.414;2022-12-29T08:24:02;95468.50;;;5.00;85.93
42705;BME280;28342;42.594;23.414;2022-12-29T08:26:30;95464.63;;;4.81;85.59
42705;BME280;28342;42.594;23.414;2022-12-29T08:29:02;95450.53;;;4.92;85.27
42705;BME280;28342;42.594;23.414;2022-12-29T08:31:27;95460.97;;;5.09;86.09
42705;BME280;28342;42.594;23.414;2022-12-29T08:33:52;95466.50;;;5.13;85.52
42705;BME280;28342;42.594;23.414;2022-12-29T08:36:18;95460.91;;;5.36;84.08
42705;BME280;28342;42.594;23.414;2022-12-29T08:38:43;95448.09;;;5.45;83.52
42705;BME280;28342;42.594;23.414;2022-12-29T08:41:09;95455.56;;;5.53;82.51
42705;BME280;28342;42.594;23.414;2022-12-29T08:43:34;95461.16;;;5.66;82.68
42705;BME280;28342;42.594;23.414;2022-12-29T08:46:00;95437.72;;;5.65;81.28
42705;BME280;28342;42.594;23.414;2022-12-29T08:48:26;95449.53;;;5.94;81.07
42705;BME280;28342;42.594;23.414;2022-12-29T08:50:51;95457.50;;;6.05;82.24
42705;BME280;28342;42.594;23.414;2022-12-29T08:53:18;95462.59;;;6.21;80.06
42705;BME280;28342;42.594;23.414;2022-12-29T08:55:55;95449.97;;;6.23;79.94
42705;BME280;28342;42.594;23.414;2022-12-29T08:58:21;95443.44;;;6.36;80.20
42705;BME280;28342;42.594;23.414;2022-12-29T09:00:46;95453.25;;;6.56;79.63
42705;BME280;28342;42.594;23.414;2022-12-29T09:03:11;95445.97;;;6.78;79.25
42705;BME280;28342;42.594;23.414;2022-12-29T09:05:39;95439.13;;;6.87;78.65
42705;BME280;28342;42.594;23.414;2022-12-29T09:08:05;95433.34;;;7.01;76.79
42705;BME280;28342;42.594;23.414;2022-12-29T09:10:30;95444.97;;;7.05;78.41
42705;BME280;28342;42.594;23.414;2022-12-29T09:12:56;95434.69;;;7.34;77.75
42705;BME280;28342;42.594;23.414;2022-12-29T09:15:21;95424.44;;;7.42;76.85
42705;BME280;28342;42.594;23.414;2022-12-29T09:17:50;95430.44;;;7.02;75.78
42705;BME280;28342;42.594;23.414;2022-12-29T09:20:19;95432.34;;;7.27;77.15
42705;BME280;28342;42.594;23.414;2022-12-29T09:22:45;95426.53;;;7.30;76.05
42705;BME280;28342;42.594;23.414;2022-12-29T09:25:13;95436.28;;;7.35;75.32
42705;BME280;28342;42.594;23.414;2022-12-29T09:27:38;95436.56;;;7.43;75.52
42705;BME280;28342;42.594;23.414;2022-12-29T09:30:11;95399.84;;;7.16;75.03
42705;BME280;28342;42.594;23.414;2022-12-29T09:32:37;95426.00;;;7.48;75.14
42705;BME280;28342;42.594;23.414;2022-12-29T09:35:03;95420.72;;;7.33;75.09
42705;BME280;28342;42.594;23.414;2022-12-29T09:37:29;95415.97;;;7.15;75.38
42705;BME280;28342;42.594;23.414;2022-12-29T09:39:55;95414.91;;;7.06;76.36
42705;BME280;28342;42.594;23.414;2022-12-29T09:42:45;95426.00;;;7.23;76.04
42705;BME280;28342;42.594;23.414;2022-12-29T09:45:20;95410.16;;;7.33;76.14
42705;BME280;28342;42.594;23.414;2022-12-29T09:47:49;95419.16;;;7.42;76.35
42705;BME280;28342;42.594;23.414;2022-12-29T09:50:29;95429.16;;;7.61;76.34
42705;BME280;28342;42.594;23.414;2022-12-29T09:53:14;95413.06;;;7.67;75.48
42705;BME280;28342;42.594;23.414;2022-12-29T09:55:51;95405.91;;;7.83;75.46
42705;BME280;28342;42.594;23.414;2022-12-29T10:01:21;95407.47;;;7.99;74.78
42705;BME280;28342;42.594;23.414;2022-12-29T10:03:54;95395.81;;;7.95;74.28
42705;BME280;28342;42.594;23.414;2022-12-29T10:09:29;95395.22;;;8.24;74.11
42705;BME280;28342;42.594;23.414;2022-12-29T10:25:34;95360.84;;;8.29;73.33
42705;BME280;28342;42.594;23.414;2022-12-29T10:28:05;95370.28;;;8.50;73.83
42705;BME280;28342;42.594;23.414;2022-12-29T10:30:35;95347.09;;;8.32;73.63
42705;BME280;28342;42.594;23.414;2022-12-29T10:33:05;95358.13;;;8.49;73.82
42705;BME280;28342;42.594;23.414;2022-12-29T10:35:35;95362.31;;;8.55;73.87
42705;BME280;28342;42.594;23.414;2022-12-29T10:40:53;95348.66;;;8.43;74.34
42705;BME280;28342;42.594;23.414;2022-12-29T10:43:28;95342.81;;;8.46;73.73
42705;BME280;28342;42.594;23.414;2022-12-29T10:46:01;95342.75;;;8.56;73.78
42705;BME280;28342;42.594;23.414;2022-12-29T10:48:31;95311.84;;;8.52;73.46
42705;BME280;28342;42.594;23.414;2022-12-29T10:50:58;95337.41;;;8.66;73.48
42705;BME280;28342;42.594;23.414;2022-12-29T10:53:43;95335.78;;;8.76;73.50
42705;BME280;28342;42.594;23.414;2022-12-29T10:58:49;95327.34;;;8.68;72.84
42705;BME280;28342;42.594;23.414;2022-12-29T11:01:17;95304.94;;;8.56;73.43
42705;BME280;28342;42.594;23.414;2022-12-29T11:06:21;95331.91;;;8.97;72.91
42705;BME280;28342;42.594;23.414;2022-12-29T11:09:19;95323.41;;;9.00;72.53
42705;BME280;28342;42.594;23.414;2022-12-29T11:11:47;95315.97;;;9.02;72.23
42705;BME280;28342;42.594;23.414;2022-12-29T11:14:30;95309.53;;;9.13;72.15
42705;BME280;28342;42.594;23.414;2022-12-29T11:19:26;95311.28;;;9.28;72.61
42705;BME280;28342;42.594;23.414;2022-12-29T11:21:52;95299.91;;;9.27;72.15
42705;BME280;28342;42.594;23.414;2022-12-29T11:24:28;95293.03;;;9.26;71.79
42705;BME280;28342;42.594;23.414;2022-12-29T11:27:07;95293.47;;;9.34;71.86
42705;BME280;28342;42.594;23.414;2022-12-29T11:29:41;95276.56;;;9.29;71.51
42705;BME280;28342;42.594;23.414;2022-12-29T11:32:27;95274.41;;;9.37;71.22
42705;BME280;28342;42.594;23.414;2022-12-29T11:34:55;95278.06;;;9.41;71.00
42705;BME280;28342;42.594;23.414;2022-12-29T11:37:31;95281.22;;;9.43;71.54
42705;BME280;28342;42.594;23.414;2022-12-29T11:40:03;95302.19;;;9.63;70.82
42705;BME280;28342;42.594;23.414;2022-12-29T11:45:22;95290.41;;;9.74;70.43
42705;BME280;28342;42.594;23.414;2022-12-29T11:47:52;95275.66;;;9.68;69.97
42705;BME280;28342;42.594;23.414;2022-12-29T11:50:24;95269.97;;;9.56;70.35
42705;BME280;28342;42.594;23.414;2022-12-29T11:52:59;95277.38;;;9.78;69.46
42705;BME280;28342;42.594;23.414;2022-12-29T11:55:26;95280.78;;;9.83;69.88
42705;BME280;28342;42.594;23.414;2022-12-29T11:57:54;95289.25;;;9.85;70.27
42705;BME280;28342;42.594;23.414;2022-12-29T12:00:25;95259.91;;;9.77;69.99
42705;BME280;28342;42.594;23.414;2022-12-29T12:05:39;95283.19;;;10.04;70.12
42705;BME280;28342;42.594;23.414;2022-12-29T12:16:41;95267.94;;;9.96;69.49
42705;BME280;28342;42.594;23.414;2022-12-29T12:19:35;95281.13;;;10.01;69.62
42705;BME280;28342;42.594;23.414;2022-12-29T12:22:26;95261.03;;;9.95;69.17
42705;BME280;28342;42.594;23.414;2022-12-29T12:25:02;95268.47;;;9.93;69.42
42705;BME280;28342;42.594;23.414;2022-12-29T12:27:39;95259.44;;;9.94;69.61
42705;BME280;28342;42.594;23.414;2022-12-29T12:30:24;95251.34;;;9.85;69.07
42705;BME280;28342;42.594;23.414;2022-12-29T12:33:00;95265.41;;;9.85;68.56
42705;BME280;28342;42.594;23.414;2022-12-29T12:35:40;95275.59;;;9.97;69.18
42705;BME280;28342;42.594;23.414;2022-12-29T12:46:10;95265.34;;;10.09;69.40
42705;BME280;28342;42.594;23.414;2022-12-29T12:52:42;95250.88;;;10.02;68.70
42705;BME280;28342;42.594;23.414;2022-12-29T13:08:59;95263.84;;;10.03;69.15
42705;BME280;28342;42.594;23.414;2022-12-29T13:11:50;95262.28;;;10.02;69.35
42705;BME280;28342;42.594;23.414;2022-12-29T13:14:42;95263.63;;;10.00;69.23
42705;BME280;28342;42.594;23.414;2022-12-29T13:20:41;95260.78;;;9.96;68.59
42705;BME280;28342;42.594;23.414;2022-12-29T13:23:32;95267.41;;;9.94;68.79
42705;BME280;28342;42.594;23.414;2022-12-29T13:26:24;95248.03;;;9.74;68.82
42705;BME280;28342;42.594;23.414;2022-12-29T13:29:06;95237.50;;;9.69;68.93
42705;BME280;28342;42.594;23.414;2022-12-29T13:34:40;95263.84;;;9.79;69.74
42705;BME280;28342;42.594;23.414;2022-12-29T13:37:20;95249.16;;;9.68;70.05
42705;BME280;28342;42.594;23.414;2022-12-29T13:39:54;95261.78;;;9.76;70.72
42705;BME280;28342;42.594;23.414;2022-12-29T13:42:22;95255.25;;;9.69;69.92
42705;BME280;28342;42.594;23.414;2022-12-29T13:45:02;95259.47;;;9.70;69.76
42705;BME280;28342;42.594;23.414;2022-12-29T13:47:38;95260.84;;;9.67;70.27
42705;BME280;28342;42.594;23.414;2022-12-29T13:50:14;95259.78;;;9.68;70.21
42705;BME280;28342;42.594;23.414;2022-12-29T13:53:02;95266.44;;;9.66;70.51
42705;BME280;28342;42.594;23.414;2022-12-29T13:58:37;95264.72;;;9.51;70.98
42705;BME280;28342;42.594;23.414;2022-12-29T14:06:26;95256.19;;;9.30;71.58
42705;BME280;28342;42.594;23.414;2022-12-29T14:11:42;95270.25;;;9.25;71.99
42705;BME280;28342;42.594;23.414;2022-12-29T14:14:18;95264.00;;;9.16;72.22
42705;BME280;28342;42.594;23.414;2022-12-29T14:16:46;95269.91;;;9.08;72.36
42705;BME280;28342;42.594;23.414;2022-12-29T14:19:16;95277.97;;;8.93;72.89
42705;BME280;28342;42.594;23.414;2022-12-29T14:21:57;95280.69;;;8.83;73.40
42705;BME280;28342;42.594;23.414;2022-12-29T14:29:49;95273.53;;;8.49;74.19
42705;BME280;28342;42.594;23.414;2022-12-29T14:34:47;95281.28;;;8.30;74.62
42705;BME280;28342;42.594;23.414;2022-12-29T14:37:31;95291.06;;;8.30;74.60
42705;BME280;28342;42.594;23.414;2022-12-29T14:40:18;95279.00;;;8.14;75.13
42705;BME280;28342;42.594;23.414;2022-12-29T14:42:45;95297.50;;;8.14;75.11
42705;BME280;28342;42.594;23.414;2022-12-29T14:47:45;95284.34;;;7.93;75.08
42705;BME280;28342;42.594;23.414;2022-12-29T14:53:06;95306.00;;;7.95;75.39
42705;BME280;28342;42.594;23.414;2022-12-29T14:58:30;95306.09;;;7.65;76.13
42705;BME280;28342;42.594;23.414;2022-12-29T15:00:57;95298.22;;;7.60;76.10
42705;BME280;28342;42.594;23.414;2022-12-29T15:03:23;95299.50;;;7.62;75.71
42705;BME280;28342;42.594;23.414;2022-12-29T15:05:55;95311.44;;;7.55;75.73
42705;BME280;28342;42.594;23.414;2022-12-29T15:08:25;95301.41;;;7.41;76.16
42705;BME280;28342;42.594;23.414;2022-12-29T15:10:58;95300.63;;;7.31;76.38
42705;BME280;28342;42.594;23.414;2022-12-29T15:13:34;95285.34;;;7.28;76.29
42705;BME280;28342;42.594;23.414;2022-12-29T15:16:00;95308.81;;;7.19;76.50
42705;BME280;28342;42.594;23.414;2022-12-29T15:18:30;95310.44;;;6.95;77.01
42705;BME280;28342;42.594;23.414;2022-12-29T15:21:01;95297.25;;;6.79;77.55
42705;BME280;28342;42.594;23.414;2022-12-29T15:23:31;95304.91;;;6.76;78.71
42705;BME280;28342;42.594;23.414;2022-12-29T15:26:03;95309.38;;;6.75;78.71
42705;BME280;28342;42.594;23.414;2022-12-29T15:28:41;95295.66;;;6.68;78.18
42705;BME280;28342;42.594;23.414;2022-12-29T15:31:15;95299.59;;;6.55;78.58
42705;BME280;28342;42.594;23.414;2022-12-29T15:33:46;95315.69;;;6.59;78.33
42705;BME280;28342;42.594;23.414;2022-12-29T15:36:24;95318.78;;;6.36;79.90